Terminal Aerodrome Forecast
Issued by NWS

Home | Current Version | Previous Version | Text Only | Print | Product List | Glossary On
Versions: 1 2 3 4 5 6 7 8 9 10 11 12 13 14
453
FTUS46 KPDT 262333
TAFALW
TAF
KALW 262333Z 2700/2724 32006KT P6SM SKC
     FM270400 12006KT P6SM SKC
     FM271200 12007KT P6SM FEW200
     FM271700 VRB05KT P6SM SCT180
     FM272200 23010G18KT P6SM SCT130 BKN150=

USA.gov is the U.S. government's official web portal to all federal, state and local government web resources and services.